sensor_id;sensor_type;location;lat;lon;timestamp;P1;durP1;ratioP1;P2;durP2;ratioP2
80315;SDS011;71201;47.064;15.448;2024-02-14T00:09:58;6.63;;;3.33;;
80315;SDS011;71201;47.064;15.448;2024-02-14T00:20:03;6.20;;;2.30;;
80315;SDS011;71201;47.064;15.448;2024-02-14T00:27:19;4.60;;;2.40;;
80315;SDS011;71201;47.064;15.448;2024-02-14T00:34:17;7.40;;;3.05;;
80315;SDS011;71201;47.064;15.448;2024-02-14T00:56:17;3.22;;;1.60;;
80315;SDS011;71201;47.064;15.448;2024-02-14T01:03:53;2.75;;;1.30;;
80315;SDS011;71201;47.064;15.448;2024-02-14T01:11:21;3.58;;;1.85;;
80315;SDS011;71201;47.064;15.448;2024-02-14T01:19:13;5.93;;;2.00;;
80315;SDS011;71201;47.064;15.448;2024-02-14T01:27:05;4.72;;;1.63;;
80315;SDS011;71201;47.064;15.448;2024-02-14T01:32:14;3.40;;;1.58;;
80315;SDS011;71201;47.064;15.448;2024-02-14T01:42:25;3.45;;;1.83;;
80315;SDS011;71201;47.064;15.448;2024-02-14T01:50:22;4.05;;;1.83;;
80315;SDS011;71201;47.064;15.448;2024-02-14T01:55:07;8.20;;;1.73;;
80315;SDS011;71201;47.064;15.448;2024-02-14T02:13:32;2.78;;;1.65;;
80315;SDS011;71201;47.064;15.448;2024-02-14T02:38:41;5.13;;;1.42;;
80315;SDS011;71201;47.064;15.448;2024-02-14T02:41:06;3.80;;;1.27;;
80315;SDS011;71201;47.064;15.448;2024-02-14T02:43:32;5.10;;;1.48;;
80315;SDS011;71201;47.064;15.448;2024-02-14T02:45:57;4.20;;;1.50;;
80315;SDS011;71201;47.064;15.448;2024-02-14T02:48:23;3.75;;;1.90;;
80315;SDS011;71201;47.064;15.448;2024-02-14T02:50:48;3.42;;;1.83;;
80315;SDS011;71201;47.064;15.448;2024-02-14T02:53:14;5.72;;;2.50;;
80315;SDS011;71201;47.064;15.448;2024-02-14T02:55:39;5.28;;;1.92;;
80315;SDS011;71201;47.064;15.448;2024-02-14T02:58:05;7.00;;;2.05;;
80315;SDS011;71201;47.064;15.448;2024-02-14T03:00:31;4.93;;;2.10;;
80315;SDS011;71201;47.064;15.448;2024-02-14T03:02:57;4.55;;;1.98;;
80315;SDS011;71201;47.064;15.448;2024-02-14T03:05:22;2.53;;;1.20;;
80315;SDS011;71201;47.064;15.448;2024-02-14T03:07:48;4.53;;;2.13;;
80315;SDS011;71201;47.064;15.448;2024-02-14T03:10:15;6.50;;;1.55;;
80315;SDS011;71201;47.064;15.448;2024-02-14T03:12:44;4.13;;;1.33;;
80315;SDS011;71201;47.064;15.448;2024-02-14T03:15:09;5.85;;;1.80;;
80315;SDS011;71201;47.064;15.448;2024-02-14T03:17:35;4.35;;;1.73;;
80315;SDS011;71201;47.064;15.448;2024-02-14T03:20:00;4.40;;;1.90;;
80315;SDS011;71201;47.064;15.448;2024-02-14T03:22:26;3.92;;;1.65;;
80315;SDS011;71201;47.064;15.448;2024-02-14T03:24:51;4.00;;;1.30;;
80315;SDS011;71201;47.064;15.448;2024-02-14T03:27:16;5.40;;;1.30;;
80315;SDS011;71201;47.064;15.448;2024-02-14T03:29:42;3.47;;;1.48;;
80315;SDS011;71201;47.064;15.448;2024-02-14T03:32:09;4.35;;;1.42;;
80315;SDS011;71201;47.064;15.448;2024-02-14T03:34:34;4.43;;;1.15;;
80315;SDS011;71201;47.064;15.448;2024-02-14T03:37:00;3.20;;;1.20;;
80315;SDS011;71201;47.064;15.448;2024-02-14T03:39:27;2.70;;;1.30;;
80315;SDS011;71201;47.064;15.448;2024-02-14T03:41:52;3.83;;;1.58;;
80315;SDS011;71201;47.064;15.448;2024-02-14T03:44:19;2.97;;;1.02;;
80315;SDS011;71201;47.064;15.448;2024-02-14T03:46:45;2.05;;;0.80;;
80315;SDS011;71201;47.064;15.448;2024-02-14T03:49:12;1.90;;;1.00;;
80315;SDS011;71201;47.064;15.448;2024-02-14T03:51:37;2.43;;;1.00;;
80315;SDS011;71201;47.064;15.448;2024-02-14T03:54:03;2.77;;;0.93;;
80315;SDS011;71201;47.064;15.448;2024-02-14T03:56:28;2.57;;;0.90;;
80315;SDS011;71201;47.064;15.448;2024-02-14T03:58:55;2.83;;;1.27;;
80315;SDS011;71201;47.064;15.448;2024-02-14T04:01:20;4.53;;;1.25;;
80315;SDS011;71201;47.064;15.448;2024-02-14T04:03:46;1.90;;;0.73;;
80315;SDS011;71201;47.064;15.448;2024-02-14T04:06:11;2.38;;;0.77;;
80315;SDS011;71201;47.064;15.448;2024-02-14T04:08:38;4.50;;;1.33;;
80315;SDS011;71201;47.064;15.448;2024-02-14T04:11:03;3.63;;;1.07;;
80315;SDS011;71201;47.064;15.448;2024-02-14T04:13:29;2.95;;;1.02;;
80315;SDS011;71201;47.064;15.448;2024-02-14T04:15:54;2.27;;;0.90;;
80315;SDS011;71201;47.064;15.448;2024-02-14T04:18:19;3.43;;;1.10;;
80315;SDS011;71201;47.064;15.448;2024-02-14T04:20:44;2.63;;;0.80;;
80315;SDS011;71201;47.064;15.448;2024-02-14T04:23:10;3.33;;;1.20;;
80315;SDS011;71201;47.064;15.448;2024-02-14T04:25:35;4.65;;;1.42;;
80315;SDS011;71201;47.064;15.448;2024-02-14T04:28:02;1.73;;;0.70;;
80315;SDS011;71201;47.064;15.448;2024-02-14T04:30:27;6.20;;;1.00;;
80315;SDS011;71201;47.064;15.448;2024-02-14T04:32:52;4.30;;;1.03;;
80315;SDS011;71201;47.064;15.448;2024-02-14T04:35:21;4.33;;;1.70;;
80315;SDS011;71201;47.064;15.448;2024-02-14T04:37:46;4.57;;;1.30;;
80315;SDS011;71201;47.064;15.448;2024-02-14T04:40:13;5.53;;;1.10;;
80315;SDS011;71201;47.064;15.448;2024-02-14T04:42:38;2.90;;;0.90;;
80315;SDS011;71201;47.064;15.448;2024-02-14T04:45:04;3.97;;;0.97;;
80315;SDS011;71201;47.064;15.448;2024-02-14T04:47:29;2.38;;;1.15;;
80315;SDS011;71201;47.064;15.448;2024-02-14T04:49:54;4.90;;;1.30;;
80315;SDS011;71201;47.064;15.448;2024-02-14T04:52:20;2.50;;;1.23;;
80315;SDS011;71201;47.064;15.448;2024-02-14T04:54:46;3.63;;;1.67;;
80315;SDS011;71201;47.064;15.448;2024-02-14T04:57:11;3.67;;;1.10;;
80315;SDS011;71201;47.064;15.448;2024-02-14T04:59:37;2.22;;;0.80;;
80315;SDS011;71201;47.064;15.448;2024-02-14T05:02:02;2.33;;;1.00;;
80315;SDS011;71201;47.064;15.448;2024-02-14T05:04:28;3.63;;;1.10;;
80315;SDS011;71201;47.064;15.448;2024-02-14T05:06:54;3.05;;;1.20;;
80315;SDS011;71201;47.064;15.448;2024-02-14T05:09:19;6.43;;;1.40;;
80315;SDS011;71201;47.064;15.448;2024-02-14T05:11:45;2.60;;;1.10;;
80315;SDS011;71201;47.064;15.448;2024-02-14T05:14:10;2.05;;;1.00;;
80315;SDS011;71201;47.064;15.448;2024-02-14T05:16:36;2.95;;;1.42;;
80315;SDS011;71201;47.064;15.448;2024-02-14T05:19:01;2.35;;;1.05;;
80315;SDS011;71201;47.064;15.448;2024-02-14T05:21:26;3.92;;;1.15;;
80315;SDS011;71201;47.064;15.448;2024-02-14T05:23:52;2.67;;;0.90;;
80315;SDS011;71201;47.064;15.448;2024-02-14T05:26:18;3.80;;;1.17;;
80315;SDS011;71201;47.064;15.448;2024-02-14T05:28:43;3.73;;;1.03;;
80315;SDS011;71201;47.064;15.448;2024-02-14T05:31:08;2.20;;;0.83;;
80315;SDS011;71201;47.064;15.448;2024-02-14T05:33:33;2.60;;;1.03;;
80315;SDS011;71201;47.064;15.448;2024-02-14T05:35:58;4.43;;;1.10;;
80315;SDS011;71201;47.064;15.448;2024-02-14T05:38:24;3.40;;;1.13;;
80315;SDS011;71201;47.064;15.448;2024-02-14T05:40:49;6.07;;;1.30;;
80315;SDS011;71201;47.064;15.448;2024-02-14T05:43:15;4.33;;;1.07;;
80315;SDS011;71201;47.064;15.448;2024-02-14T05:45:40;3.08;;;1.05;;
80315;SDS011;71201;47.064;15.448;2024-02-14T05:48:06;4.63;;;1.40;;
80315;SDS011;71201;47.064;15.448;2024-02-14T05:50:32;5.07;;;1.38;;
80315;SDS011;71201;47.064;15.448;2024-02-14T05:52:58;4.07;;;1.70;;
80315;SDS011;71201;47.064;15.448;2024-02-14T05:55:23;3.33;;;1.20;;
80315;SDS011;71201;47.064;15.448;2024-02-14T05:57:49;4.63;;;1.50;;
80315;SDS011;71201;47.064;15.448;2024-02-14T06:00:16;4.68;;;1.15;;
80315;SDS011;71201;47.064;15.448;2024-02-14T06:02:43;3.15;;;1.20;;
80315;SDS011;71201;47.064;15.448;2024-02-14T06:05:09;4.30;;;1.07;;
80315;SDS011;71201;47.064;15.448;2024-02-14T06:07:37;4.82;;;1.25;;
80315;SDS011;71201;47.064;15.448;2024-02-14T06:10:02;3.88;;;1.10;;
80315;SDS011;71201;47.064;15.448;2024-02-14T06:12:27;3.00;;;1.30;;
80315;SDS011;71201;47.064;15.448;2024-02-14T06:14:54;2.78;;;1.13;;
80315;SDS011;71201;47.064;15.448;2024-02-14T06:17:20;2.85;;;1.17;;
80315;SDS011;71201;47.064;15.448;2024-02-14T06:19:45;3.73;;;1.20;;
80315;SDS011;71201;47.064;15.448;2024-02-14T06:22:11;2.93;;;0.90;;
80315;SDS011;71201;47.064;15.448;2024-02-14T06:24:36;3.47;;;1.30;;
80315;SDS011;71201;47.064;15.448;2024-02-14T06:27:01;6.00;;;1.50;;
80315;SDS011;71201;47.064;15.448;2024-02-14T06:29:27;6.35;;;1.63;;
80315;SDS011;71201;47.064;15.448;2024-02-14T06:31:52;5.93;;;2.27;;
80315;SDS011;71201;47.064;15.448;2024-02-14T06:34:17;2.60;;;1.30;;
80315;SDS011;71201;47.064;15.448;2024-02-14T06:36:44;4.13;;;1.63;;
80315;SDS011;71201;47.064;15.448;2024-02-14T06:39:10;3.47;;;1.87;;
80315;SDS011;71201;47.064;15.448;2024-02-14T06:41:35;3.50;;;1.87;;
80315;SDS011;71201;47.064;15.448;2024-02-14T06:44:00;6.20;;;2.00;;
80315;SDS011;71201;47.064;15.448;2024-02-14T06:46:25;2.27;;;1.07;;
80315;SDS011;71201;47.064;15.448;2024-02-14T06:48:51;6.20;;;1.40;;
80315;SDS011;71201;47.064;15.448;2024-02-14T06:51:16;5.95;;;1.85;;
80315;SDS011;71201;47.064;15.448;2024-02-14T06:53:41;7.93;;;2.60;;
80315;SDS011;71201;47.064;15.448;2024-02-14T06:56:06;5.80;;;1.90;;
80315;SDS011;71201;47.064;15.448;2024-02-14T06:58:32;7.97;;;2.87;;
80315;SDS011;71201;47.064;15.448;2024-02-14T07:00:57;8.23;;;2.17;;
80315;SDS011;71201;47.064;15.448;2024-02-14T07:03:23;24.60;;;5.30;;
80315;SDS011;71201;47.064;15.448;2024-02-14T07:05:48;12.20;;;3.53;;
80315;SDS011;71201;47.064;15.448;2024-02-14T07:08:13;12.23;;;4.03;;
80315;SDS011;71201;47.064;15.448;2024-02-14T07:10:40;15.18;;;4.70;;
80315;SDS011;71201;47.064;15.448;2024-02-14T07:13:05;10.90;;;4.07;;
80315;SDS011;71201;47.064;15.448;2024-02-14T07:15:30;13.83;;;4.40;;
80315;SDS011;71201;47.064;15.448;2024-02-14T07:17:55;16.92;;;5.10;;
80315;SDS011;71201;47.064;15.448;2024-02-14T07:20:22;11.90;;;5.05;;
80315;SDS011;71201;47.064;15.448;2024-02-14T07:22:48;18.73;;;5.57;;
80315;SDS011;71201;47.064;15.448;2024-02-14T07:27:43;11.80;;;5.10;;
80315;SDS011;71201;47.064;15.448;2024-02-14T07:30:08;13.93;;;5.90;;
80315;SDS011;71201;47.064;15.448;2024-02-14T07:32:33;13.43;;;4.47;;
80315;SDS011;71201;47.064;15.448;2024-02-14T07:34:59;13.18;;;4.43;;
80315;SDS011;71201;47.064;15.448;2024-02-14T07:37:24;12.98;;;3.78;;
80315;SDS011;71201;47.064;15.448;2024-02-14T07:39:50;12.18;;;4.82;;
80315;SDS011;71201;47.064;15.448;2024-02-14T07:42:15;10.85;;;4.22;;
80315;SDS011;71201;47.064;15.448;2024-02-14T07:44:40;7.65;;;3.85;;
80315;SDS011;71201;47.064;15.448;2024-02-14T07:47:06;7.13;;;3.17;;
80315;SDS011;71201;47.064;15.448;2024-02-14T07:49:31;8.30;;;3.53;;
80315;SDS011;71201;47.064;15.448;2024-02-14T07:51:56;12.50;;;4.97;;
80315;SDS011;71201;47.064;15.448;2024-02-14T07:54:22;11.77;;;5.30;;
80315;SDS011;71201;47.064;15.448;2024-02-14T07:56:47;13.43;;;4.33;;
80315;SDS011;71201;47.064;15.448;2024-02-14T07:59:12;8.00;;;3.80;;
80315;SDS011;71201;47.064;15.448;2024-02-14T08:01:37;7.65;;;3.63;;
80315;SDS011;71201;47.064;15.448;2024-02-14T08:04:03;9.25;;;4.43;;
80315;SDS011;71201;47.064;15.448;2024-02-14T08:06:29;7.30;;;3.53;;
80315;SDS011;71201;47.064;15.448;2024-02-14T08:08:54;8.95;;;3.65;;
80315;SDS011;71201;47.064;15.448;2024-02-14T08:11:24;9.55;;;4.53;;
80315;SDS011;71201;47.064;15.448;2024-02-14T08:13:49;11.52;;;4.05;;
80315;SDS011;71201;47.064;15.448;2024-02-14T08:16:15;12.20;;;3.63;;
80315;SDS011;71201;47.064;15.448;2024-02-14T08:18:40;7.53;;;3.77;;
80315;SDS011;71201;47.064;15.448;2024-02-14T08:21:09;10.23;;;3.80;;
80315;SDS011;71201;47.064;15.448;2024-02-14T08:23:34;9.88;;;3.47;;
80315;SDS011;71201;47.064;15.448;2024-02-14T08:25:59;8.17;;;3.57;;
80315;SDS011;71201;47.064;15.448;2024-02-14T08:28:24;10.07;;;4.10;;
80315;SDS011;71201;47.064;15.448;2024-02-14T08:30:50;9.30;;;4.50;;
80315;SDS011;71201;47.064;15.448;2024-02-14T08:33:16;7.75;;;4.57;;
80315;SDS011;71201;47.064;15.448;2024-02-14T08:35:41;8.00;;;3.95;;
80315;SDS011;71201;47.064;15.448;2024-02-14T08:38:07;9.23;;;4.10;;
80315;SDS011;71201;47.064;15.448;2024-02-14T08:40:33;7.47;;;3.38;;
80315;SDS011;71201;47.064;15.448;2024-02-14T08:42:58;9.98;;;3.35;;
80315;SDS011;71201;47.064;15.448;2024-02-14T08:45:24;6.60;;;3.50;;
80315;SDS011;71201;47.064;15.448;2024-02-14T08:47:50;7.60;;;3.00;;
80315;SDS011;71201;47.064;15.448;2024-02-14T08:50:15;10.55;;;2.38;;
80315;SDS011;71201;47.064;15.448;2024-02-14T08:52:40;7.03;;;2.10;;
80315;SDS011;71201;47.064;15.448;2024-02-14T08:55:06;4.65;;;2.22;;
80315;SDS011;71201;47.064;15.448;2024-02-14T08:57:35;3.60;;;1.80;;
80315;SDS011;71201;47.064;15.448;2024-02-14T09:00:01;9.57;;;1.97;;
80315;SDS011;71201;47.064;15.448;2024-02-14T09:02:27;5.13;;;1.80;;
80315;SDS011;71201;47.064;15.448;2024-02-14T09:04:53;7.03;;;2.47;;
80315;SDS011;71201;47.064;15.448;2024-02-14T09:07:19;7.20;;;1.95;;
80315;SDS011;71201;47.064;15.448;2024-02-14T09:09:44;5.27;;;1.80;;
80315;SDS011;71201;47.064;15.448;2024-02-14T09:12:11;5.32;;;2.00;;
80315;SDS011;71201;47.064;15.448;2024-02-14T09:14:36;5.30;;;1.60;;
80315;SDS011;71201;47.064;15.448;2024-02-14T09:17:02;8.15;;;2.40;;
80315;SDS011;71201;47.064;15.448;2024-02-14T09:19:27;7.40;;;1.80;;
80315;SDS011;71201;47.064;15.448;2024-02-14T09:21:52;8.37;;;2.47;;
80315;SDS011;71201;47.064;15.448;2024-02-14T09:24:18;8.43;;;2.40;;
80315;SDS011;71201;47.064;15.448;2024-02-14T09:26:43;5.13;;;1.67;;
80315;SDS011;71201;47.064;15.448;2024-02-14T09:29:08;4.53;;;1.40;;
80315;SDS011;71201;47.064;15.448;2024-02-14T09:31:36;3.70;;;1.30;;
80315;SDS011;71201;47.064;15.448;2024-02-14T09:34:01;3.27;;;1.23;;
80315;SDS011;71201;47.064;15.448;2024-02-14T09:36:26;3.23;;;1.43;;
80315;SDS011;71201;47.064;15.448;2024-02-14T09:38:51;7.03;;;2.00;;
80315;SDS011;71201;47.064;15.448;2024-02-14T09:43:51;5.57;;;1.60;;
80315;SDS011;71201;47.064;15.448;2024-02-14T09:46:17;5.13;;;2.30;;
80315;SDS011;71201;47.064;15.448;2024-02-14T09:48:45;6.25;;;2.63;;
80315;SDS011;71201;47.064;15.448;2024-02-14T09:51:11;7.80;;;3.75;;
80315;SDS011;71201;47.064;15.448;2024-02-14T09:53:37;13.07;;;3.67;;
80315;SDS011;71201;47.064;15.448;2024-02-14T09:56:03;10.95;;;3.20;;
80315;SDS011;71201;47.064;15.448;2024-02-14T09:58:28;14.60;;;3.28;;
80315;SDS011;71201;47.064;15.448;2024-02-14T10:00:54;9.90;;;3.20;;
80315;SDS011;71201;47.064;15.448;2024-02-14T10:03:19;12.10;;;3.50;;
80315;SDS011;71201;47.064;15.448;2024-02-14T10:05:45;8.95;;;3.17;;
80315;SDS011;71201;47.064;15.448;2024-02-14T10:08:10;9.93;;;3.23;;
80315;SDS011;71201;47.064;15.448;2024-02-14T10:10:37;11.10;;;3.45;;
80315;SDS011;71201;47.064;15.448;2024-02-14T10:13:05;8.50;;;3.22;;
80315;SDS011;71201;47.064;15.448;2024-02-14T10:15:31;6.28;;;2.97;;
80315;SDS011;71201;47.064;15.448;2024-02-14T10:18:00;13.35;;;2.90;;
80315;SDS011;71201;47.064;15.448;2024-02-14T10:20:25;11.77;;;2.67;;
80315;SDS011;71201;47.064;15.448;2024-02-14T10:22:51;7.18;;;2.78;;
80315;SDS011;71201;47.064;15.448;2024-02-14T10:25:17;7.03;;;2.67;;
80315;SDS011;71201;47.064;15.448;2024-02-14T10:27:44;7.45;;;3.22;;
80315;SDS011;71201;47.064;15.448;2024-02-14T10:30:09;8.45;;;2.92;;
80315;SDS011;71201;47.064;15.448;2024-02-14T10:32:38;8.43;;;2.53;;
80315;SDS011;71201;47.064;15.448;2024-02-14T10:35:05;6.40;;;2.20;;
80315;SDS011;71201;47.064;15.448;2024-02-14T10:37:34;8.07;;;2.70;;
80315;SDS011;71201;47.064;15.448;2024-02-14T10:39:59;5.65;;;2.55;;
80315;SDS011;71201;47.064;15.448;2024-02-14T10:42:26;5.32;;;2.05;;
80315;SDS011;71201;47.064;15.448;2024-02-14T10:44:52;6.28;;;2.40;;
80315;SDS011;71201;47.064;15.448;2024-02-14T10:47:19;7.07;;;2.72;;
80315;SDS011;71201;47.064;15.448;2024-02-14T10:49:44;9.98;;;2.95;;
80315;SDS011;71201;47.064;15.448;2024-02-14T10:52:10;4.75;;;2.30;;
80315;SDS011;71201;47.064;15.448;2024-02-14T10:54:36;9.18;;;3.28;;
80315;SDS011;71201;47.064;15.448;2024-02-14T10:57:04;8.43;;;2.45;;
80315;SDS011;71201;47.064;15.448;2024-02-14T10:59:32;9.23;;;2.50;;
80315;SDS011;71201;47.064;15.448;2024-02-14T11:01:58;4.72;;;1.80;;
80315;SDS011;71201;47.064;15.448;2024-02-14T11:04:23;3.47;;;1.20;;
80315;SDS011;71201;47.064;15.448;2024-02-14T11:06:52;6.90;;;1.67;;
80315;SDS011;71201;47.064;15.448;2024-02-14T11:09:22;6.38;;;1.88;;
80315;SDS011;71201;47.064;15.448;2024-02-14T11:11:47;6.53;;;1.77;;
80315;SDS011;71201;47.064;15.448;2024-02-14T11:14:15;5.35;;;2.13;;
80315;SDS011;71201;47.064;15.448;2024-02-14T11:16:41;5.90;;;1.58;;
80315;SDS011;71201;47.064;15.448;2024-02-14T11:19:10;8.13;;;1.80;;
80315;SDS011;71201;47.064;15.448;2024-02-14T11:21:36;4.00;;;1.40;;
80315;SDS011;71201;47.064;15.448;2024-02-14T11:24:05;4.43;;;1.75;;
80315;SDS011;71201;47.064;15.448;2024-02-14T11:26:38;3.95;;;1.05;;
80315;SDS011;71201;47.064;15.448;2024-02-14T11:29:03;3.70;;;0.95;;
80315;SDS011;71201;47.064;15.448;2024-02-14T11:31:35;5.88;;;1.58;;
80315;SDS011;71201;47.064;15.448;2024-02-14T11:34:03;4.13;;;1.20;;
80315;SDS011;71201;47.064;15.448;2024-02-14T11:36:29;4.80;;;1.45;;
80315;SDS011;71201;47.064;15.448;2024-02-14T11:38:54;3.13;;;0.73;;
80315;SDS011;71201;47.064;15.448;2024-02-14T11:41:20;5.40;;;1.73;;
80315;SDS011;71201;47.064;15.448;2024-02-14T11:43:52;5.75;;;1.10;;
80315;SDS011;71201;47.064;15.448;2024-02-14T11:46:17;3.60;;;1.25;;
80315;SDS011;71201;47.064;15.448;2024-02-14T11:48:43;2.92;;;1.25;;
80315;SDS011;71201;47.064;15.448;2024-02-14T11:51:10;2.70;;;1.13;;
80315;SDS011;71201;47.064;15.448;2024-02-14T11:53:36;4.78;;;1.67;;
80315;SDS011;71201;47.064;15.448;2024-02-14T11:56:01;6.95;;;1.70;;
80315;SDS011;71201;47.064;15.448;2024-02-14T11:58:27;6.38;;;1.80;;
80315;SDS011;71201;47.064;15.448;2024-02-14T12:00:52;6.90;;;1.50;;
80315;SDS011;71201;47.064;15.448;2024-02-14T12:03:19;5.70;;;1.35;;
80315;SDS011;71201;47.064;15.448;2024-02-14T12:05:46;6.13;;;1.40;;
80315;SDS011;71201;47.064;15.448;2024-02-14T12:08:12;6.95;;;1.50;;
80315;SDS011;71201;47.064;15.448;2024-02-14T12:10:38;3.13;;;1.42;;
80315;SDS011;71201;47.064;15.448;2024-02-14T12:13:06;4.97;;;1.90;;
80315;SDS011;71201;47.064;15.448;2024-02-14T12:15:36;5.20;;;1.40;;
80315;SDS011;71201;47.064;15.448;2024-02-14T12:18:02;4.95;;;1.77;;
80315;SDS011;71201;47.064;15.448;2024-02-14T12:20:27;4.72;;;1.75;;
80315;SDS011;71201;47.064;15.448;2024-02-14T12:22:52;3.42;;;1.23;;
80315;SDS011;71201;47.064;15.448;2024-02-14T12:25:18;3.33;;;1.10;;
80315;SDS011;71201;47.064;15.448;2024-02-14T12:27:49;2.83;;;1.35;;
80315;SDS011;71201;47.064;15.448;2024-02-14T12:30:15;4.47;;;1.10;;
80315;SDS011;71201;47.064;15.448;2024-02-14T12:32:40;7.17;;;1.30;;
80315;SDS011;71201;47.064;15.448;2024-02-14T12:35:06;3.17;;;1.37;;
80315;SDS011;71201;47.064;15.448;2024-02-14T12:37:32;6.75;;;2.10;;
80315;SDS011;71201;47.064;15.448;2024-02-14T12:39:57;3.50;;;1.20;;
80315;SDS011;71201;47.064;15.448;2024-02-14T12:42:22;12.50;;;1.90;;
80315;SDS011;71201;47.064;15.448;2024-02-14T12:44:51;5.00;;;1.20;;
80315;SDS011;71201;47.064;15.448;2024-02-14T12:47:17;8.18;;;1.10;;
80315;SDS011;71201;47.064;15.448;2024-02-14T12:49:43;4.22;;;1.10;;
80315;SDS011;71201;47.064;15.448;2024-02-14T12:52:08;2.97;;;1.55;;
80315;SDS011;71201;47.064;15.448;2024-02-14T12:54:33;2.20;;;0.70;;
80315;SDS011;71201;47.064;15.448;2024-02-14T12:56:58;3.78;;;0.90;;
80315;SDS011;71201;47.064;15.448;2024-02-14T12:59:24;1.53;;;0.77;;
80315;SDS011;71201;47.064;15.448;2024-02-14T13:01:49;4.50;;;1.17;;
80315;SDS011;71201;47.064;15.448;2024-02-14T13:04:14;2.10;;;0.63;;
80315;SDS011;71201;47.064;15.448;2024-02-14T13:06:41;6.97;;;0.68;;
80315;SDS011;71201;47.064;15.448;2024-02-14T13:09:06;3.03;;;0.68;;
80315;SDS011;71201;47.064;15.448;2024-02-14T13:11:33;1.73;;;0.73;;
80315;SDS011;71201;47.064;15.448;2024-02-14T13:13:58;4.60;;;0.60;;
80315;SDS011;71201;47.064;15.448;2024-02-14T13:16:23;2.37;;;0.60;;
80315;SDS011;71201;47.064;15.448;2024-02-14T13:18:49;5.57;;;0.98;;
80315;SDS011;71201;47.064;15.448;2024-02-14T13:21:14;3.65;;;0.85;;
80315;SDS011;71201;47.064;15.448;2024-02-14T13:23:41;3.13;;;0.60;;
80315;SDS011;71201;47.064;15.448;2024-02-14T13:26:06;1.55;;;0.50;;
80315;SDS011;71201;47.064;15.448;2024-02-14T13:28:32;2.17;;;0.60;;
80315;SDS011;71201;47.064;15.448;2024-02-14T13:30:58;2.42;;;0.60;;
80315;SDS011;71201;47.064;15.448;2024-02-14T13:33:23;4.00;;;0.57;;
80315;SDS011;71201;47.064;15.448;2024-02-14T13:35:49;1.65;;;0.70;;
80315;SDS011;71201;47.064;15.448;2024-02-14T13:38:14;1.95;;;0.60;;
80315;SDS011;71201;47.064;15.448;2024-02-14T13:40:39;2.25;;;0.63;;
80315;SDS011;71201;47.064;15.448;2024-02-14T13:43:04;3.15;;;0.60;;
80315;SDS011;71201;47.064;15.448;2024-02-14T13:45:39;4.72;;;1.45;;
80315;SDS011;71201;47.064;15.448;2024-02-14T13:48:05;4.15;;;0.80;;
80315;SDS011;71201;47.064;15.448;2024-02-14T13:50:32;3.35;;;0.70;;
80315;SDS011;71201;47.064;15.448;2024-02-14T13:52:57;2.88;;;0.63;;
80315;SDS011;71201;47.064;15.448;2024-02-14T13:55:23;4.40;;;0.68;;
80315;SDS011;71201;47.064;15.448;2024-02-14T13:57:49;1.60;;;0.68;;
80315;SDS011;71201;47.064;15.448;2024-02-14T14:00:15;3.55;;;0.82;;
80315;SDS011;71201;47.064;15.448;2024-02-14T14:02:40;4.95;;;0.85;;
80315;SDS011;71201;47.064;15.448;2024-02-14T14:05:09;2.55;;;0.55;;
80315;SDS011;71201;47.064;15.448;2024-02-14T14:07:35;2.53;;;0.75;;
80315;SDS011;71201;47.064;15.448;2024-02-14T14:10:01;2.53;;;1.00;;
80315;SDS011;71201;47.064;15.448;2024-02-14T14:12:26;3.78;;;0.63;;
80315;SDS011;71201;47.064;15.448;2024-02-14T14:14:52;5.72;;;0.70;;
80315;SDS011;71201;47.064;15.448;2024-02-14T14:17:17;4.63;;;1.02;;
80315;SDS011;71201;47.064;15.448;2024-02-14T14:19:42;6.18;;;0.88;;
80315;SDS011;71201;47.064;15.448;2024-02-14T14:22:07;2.90;;;0.60;;
80315;SDS011;71201;47.064;15.448;2024-02-14T14:24:34;3.25;;;0.70;;
80315;SDS011;71201;47.064;15.448;2024-02-14T14:26:59;2.00;;;0.50;;
80315;SDS011;71201;47.064;15.448;2024-02-14T14:29:24;1.73;;;0.87;;
80315;SDS011;71201;47.064;15.448;2024-02-14T14:31:50;2.55;;;0.90;;
80315;SDS011;71201;47.064;15.448;2024-02-14T14:34:15;2.55;;;0.50;;
80315;SDS011;71201;47.064;15.448;2024-02-14T14:36:40;2.60;;;0.90;;
80315;SDS011;71201;47.064;15.448;2024-02-14T14:39:06;2.63;;;0.70;;
80315;SDS011;71201;47.064;15.448;2024-02-14T14:41:31;4.10;;;0.82;;
80315;SDS011;71201;47.064;15.448;2024-02-14T14:43:56;4.07;;;0.95;;
80315;SDS011;71201;47.064;15.448;2024-02-14T14:46:22;1.93;;;1.00;;
80315;SDS011;71201;47.064;15.448;2024-02-14T14:48:47;3.20;;;0.70;;
80315;SDS011;71201;47.064;15.448;2024-02-14T14:51:12;3.42;;;0.80;;
80315;SDS011;71201;47.064;15.448;2024-02-14T14:53:38;2.25;;;0.77;;
80315;SDS011;71201;47.064;15.448;2024-02-14T14:56:03;3.40;;;0.73;;
80315;SDS011;71201;47.064;15.448;2024-02-14T14:58:29;3.10;;;0.73;;
80315;SDS011;71201;47.064;15.448;2024-02-14T15:00:58;1.23;;;0.40;;
80315;SDS011;71201;47.064;15.448;2024-02-14T15:03:24;3.35;;;0.50;;
80315;SDS011;71201;47.064;15.448;2024-02-14T15:05:50;2.30;;;0.75;;
80315;SDS011;71201;47.064;15.448;2024-02-14T15:08:15;2.08;;;0.50;;
80315;SDS011;71201;47.064;15.448;2024-02-14T15:10:43;8.65;;;0.85;;
80315;SDS011;71201;47.064;15.448;2024-02-14T15:13:08;1.45;;;0.32;;
80315;SDS011;71201;47.064;15.448;2024-02-14T15:15:34;2.08;;;0.98;;
80315;SDS011;71201;47.064;15.448;2024-02-14T15:17:59;3.08;;;0.93;;
80315;SDS011;71201;47.064;15.448;2024-02-14T15:20:25;6.30;;;1.13;;
80315;SDS011;71201;47.064;15.448;2024-02-14T15:22:50;3.27;;;0.90;;
80315;SDS011;71201;47.064;15.448;2024-02-14T15:25:15;6.23;;;0.90;;
80315;SDS011;71201;47.064;15.448;2024-02-14T15:27:41;1.55;;;0.80;;
80315;SDS011;71201;47.064;15.448;2024-02-14T15:30:19;3.50;;;0.65;;
80315;SDS011;71201;47.064;15.448;2024-02-14T15:33:03;4.28;;;0.60;;
80315;SDS011;71201;47.064;15.448;2024-02-14T15:35:51;2.10;;;0.75;;
80315;SDS011;71201;47.064;15.448;2024-02-14T15:38:17;1.45;;;0.60;;
80315;SDS011;71201;47.064;15.448;2024-02-14T15:40:44;2.35;;;0.70;;
80315;SDS011;71201;47.064;15.448;2024-02-14T15:43:09;5.30;;;0.73;;
80315;SDS011;71201;47.064;15.448;2024-02-14T15:45:35;5.90;;;1.10;;
80315;SDS011;71201;47.064;15.448;2024-02-14T15:48:00;4.13;;;1.02;;
80315;SDS011;71201;47.064;15.448;2024-02-14T15:50:26;3.42;;;0.98;;
80315;SDS011;71201;47.064;15.448;2024-02-14T15:52:51;4.25;;;1.27;;
80315;SDS011;71201;47.064;15.448;2024-02-14T15:55:16;3.17;;;1.00;;
80315;SDS011;71201;47.064;15.448;2024-02-14T15:57:42;3.63;;;1.38;;
80315;SDS011;71201;47.064;15.448;2024-02-14T16:00:07;3.70;;;1.00;;
80315;SDS011;71201;47.064;15.448;2024-02-14T16:02:36;5.80;;;1.52;;
80315;SDS011;71201;47.064;15.448;2024-02-14T16:05:01;4.00;;;1.17;;
80315;SDS011;71201;47.064;15.448;2024-02-14T16:07:28;5.38;;;1.17;;
80315;SDS011;71201;47.064;15.448;2024-02-14T16:09:54;3.25;;;1.10;;
80315;SDS011;71201;47.064;15.448;2024-02-14T16:12:19;3.78;;;1.13;;
80315;SDS011;71201;47.064;15.448;2024-02-14T16:14:44;10.43;;;3.33;;
80315;SDS011;71201;47.064;15.448;2024-02-14T16:17:10;8.48;;;1.52;;
80315;SDS011;71201;47.064;15.448;2024-02-14T16:19:35;6.05;;;1.35;;
80315;SDS011;71201;47.064;15.448;2024-02-14T16:22:01;4.03;;;1.00;;
80315;SDS011;71201;47.064;15.448;2024-02-14T16:24:27;5.35;;;1.33;;
80315;SDS011;71201;47.064;15.448;2024-02-14T16:26:54;2.47;;;1.00;;
80315;SDS011;71201;47.064;15.448;2024-02-14T16:29:20;7.35;;;1.60;;
80315;SDS011;71201;47.064;15.448;2024-02-14T16:31:45;3.97;;;1.13;;
80315;SDS011;71201;47.064;15.448;2024-02-14T16:34:10;7.13;;;1.17;;